UKKK/IEV METAR and TAF weather

Enter ICAO airport designator
Station Type Date Time Source
UKKK METAR 2018/12/15 04:30 UTC NOAA

UKKK 150430Z 04003MPS 9999 OVC006 M01/M02 Q1027 R08/810345 NOSIG


Station Type Date Time Source
UKKK Decoded METAR 2018/12/15 04:30 UTC NOAA

Kyiv, Ukraine (UKKK) 50-24N 030-34E 167M
Dec 14, 2018 - 11:30 PM EST / 2018.12.15 0430 UTC
Wind: from the NE (040 degrees) at 7 MPH (6 KT):0
Visibility: greater than 7 mile(s):0
Sky conditions: overcast
Temperature: 30 F (-1 C)
Windchill: 23 F (-5 C):1
Dew Point: 28 F (-2 C)
Relative Humidity: 92%
Pressure (altimeter): 30.33 in. Hg (1027 hPa)
ob: UKKK 150430Z 04003MPS 9999 OVC006 M01/M02 Q1027 R08/810345 NOSIG
cycle: 4

Station Type Date Time Source
UKKK TAF 2018/12/14 18:15 UTC NOAA

TAF TAF UKKK 141708Z 1418/1518 04003G08MPS 3000 -SN BR OVC004 TXM01/1512Z TNM06/1505Z
TEMPO 1418/1506 01005G11MPS 1000 -SHSN BR BKN002 SCT012CB
BECMG 1506/1508 6000 NSW BKN010
TEMPO 1508/1512 2100 -SN OVC006


Example: see airport list